(°C)
30°
29°
29°
29°
28°
28°
28°
(°C)
36°
35°
35°
35°
34°
34°
34°
ΝΝΔ
ΝΝΔ
ΝΝΔ
ΝΔ
ΝΔ
ΝΔ
ΝΔ
(χλμ / ω)
6-17
6-15
5-13
4-11
4-11
3-11
3-11
(χιλιοστά)
0
0
0
0
0
0
0
(%)
51
36
21
7
6
5
4

Ανύψωση ήλιου

/ -8°
sun-icon
UV 6
06:48
20:24
Φθίνων αμφίκυρτος (φάση σελήνης) (224°)
23:13
10:17

METAR για Τάμπα (KTPF)

Χρόνος Συνθήκες Θερμοκρασία/
Σημείο δρόσου
Άνεμος Ορατότητα Καιρός Νέφη Πίεση Αλλαγή Ανεπεξέργαστο
VFR 30°C / 25°C 220º 8kt >10km - Overcast 11000ft - KTPF 280035Z AUTO 22008KT 10SM OVC110 30/25 A2999 RMK AO2
VFR 30°C / 25°C 220º 10kt >10km - Overcast 11000ft - KTPF 280015Z AUTO 22010KT 10SM OVC110 30/25 A3000 RMK AO2
VFR 30°C / 25°C 220º 10kt >10km - Broken Clouds 10000ft - KTPF 272355Z AUTO 22010KT 10SM BKN100 30/25 A2999 RMK AO2
VFR 30°C / 25°C 220º 8kt >10km - Scattered Clouds 11000ft - KTPF 272335Z AUTO 22008KT 10SM SCT110 30/25 A3000 RMK AO2
VFR 30°C / 25°C 210º 7kt >10km - Scattered Clouds 11000ft - KTPF 272315Z AUTO 21007KT 10SM SCT110 30/25 A3000 RMK AO2
VFR 30°C / 25°C 220º 4kt >10km - Clear - KTPF 272255Z AUTO 22004KT 10SM CLR 30/25 A2999 RMK AO2
VFR 30°C / 25°C 220º 5kt >10km - Scattered Clouds 11000ft - KTPF 272235Z AUTO 22005KT 10SM SCT110 30/25 A2999 RMK AO2
VFR 30°C / 25°C 220º 5kt >10km - Clear - KTPF 272215Z AUTO 22005KT 10SM CLR 30/25 A2999 RMK AO2
VFR 30°C / 25°C 210º 6kt >10km - Scattered Clouds 11000ft - KTPF 272155Z AUTO 21006KT 10SM SCT110 30/25 A2999 RMK AO2
VFR 30°C / 25°C 220º 5kt >10km - Clear - KTPF 272135Z AUTO 22005KT 10SM CLR 30/25 A3000 RMK AO2
VFR 31°C / 24°C 260º 3kt >10km - Scattered Clouds 8500ft - KTPF 272115Z AUTO 26003KT 10SM SCT085 SCT120 31/24 A3000 RMK AO2
VFR 30°C / 25°C 230º 4kt >10km - Scattered Clouds 9500ft - KTPF 272055Z AUTO 23004KT 10SM SCT095 30/25 A3000 RMK AO2
VFR 30°C / 24°C 220º 6kt >10km - Broken Clouds 9500ft - KTPF 272035Z AUTO 22006KT 10SM BKN095 BKN120 30/24 A3001 RMK AO2
VFR 30°C / 25°C variable 0kt >10km - Scattered Clouds 3400ft - KTPF 272015Z AUTO 00000KT 10SM SCT034 SCT040 SCT055 30/25 A3001 RMK AO2
VFR 30°C / 24°C variable 0kt >10km Light Rain 1.00mm precipitation Vertical Visibility of 0ft. - KTPF 271955Z AUTO 00000KT 10SM -RA BKN035 OVC044 30/24 A3001 RMK AO2
VFR 29°C / 24°C 270º 3kt >10km Light Rain 1.00mm precipitation Vertical Visibility of 0ft. - KTPF 271935Z AUTO 27003KT 10SM -RA BKN039 OVC050 29/24 A3001 RMK AO2
VFR 28°C / 25°C 260º 3kt >10km - Scattered Clouds 2200ft - KTPF 271915Z AUTO 26003KT 10SM SCT022 BKN046 OVC080 28/25 A3001 RMK AO2
VFR 28°C / 24°C 270º 5kt >10km Light Rain 1.00mm precipitation Vertical Visibility of 0ft. - KTPF 271855Z AUTO 27005KT 10SM -RA SCT022 BKN037 OVC044 28/24 A3002 RMK AO2
VFR 31°C / 23°C 340º 4kt >10km - Scattered Clouds 3700ft - KTPF 271835Z AUTO 34004KT 10SM SCT037 BKN045 31/23 A3002 RMK AO2
VFR 32°C / 25°C 220º 4kt >10km - Scattered Clouds 4700ft - KTPF 271815Z AUTO 22004KT 10SM SCT047 SCT100 SCT120 32/25 A3002 RMK AO2
VFR 31°C / 25°C 220º 3kt >10km - Scattered Clouds 9500ft - KTPF 271755Z AUTO 22003KT 10SM SCT095 SCT120 31/25 A3002 RMK AO2
VFR 33°C / 25°C 230º 6kt >10km - Scattered Clouds 9500ft - KTPF 271735Z AUTO 23006KT 10SM SCT095 SCT110 33/25 A3002 RMK AO2
VFR 33°C / 24°C 270º 3kt >10km - Scattered Clouds 7000ft - KTPF 271655Z AUTO 27003KT 10SM SCT070 SCT095 SCT120 33/24 A3003 RMK AO2
VFR 32°C / 25°C 270º 5kt >10km - Scattered Clouds 9500ft - KTPF 271635Z AUTO 27005KT 10SM SCT095 SCT120 32/25 A3003 RMK AO2

VFR

30°C / 25°C

[Περισσότερο]
Άνεμος 220º 8kt
Ορατότητα >10km
Καιρός -
Νέφη Overcast 11000ft
Πίεση
Αλλαγή -
Ανεπεξέργαστο KTPF 280035Z AUTO 22008KT 10SM OVC110 30/25 A2999 RMK AO2

VFR

30°C / 25°C

[Περισσότερο]
Άνεμος 220º 10kt
Ορατότητα >10km
Καιρός -
Νέφη Overcast 11000ft
Πίεση
Αλλαγή -
Ανεπεξέργαστο KTPF 280015Z AUTO 22010KT 10SM OVC110 30/25 A3000 RMK AO2

VFR

30°C / 25°C

[Περισσότερο]
Άνεμος 220º 10kt
Ορατότητα >10km
Καιρός -
Νέφη Broken Clouds 10000ft
Πίεση
Αλλαγή -
Ανεπεξέργαστο KTPF 272355Z AUTO 22010KT 10SM BKN100 30/25 A2999 RMK AO2

VFR

30°C / 25°C

[Περισσότερο]
Άνεμος 220º 8kt
Ορατότητα >10km
Καιρός -
Νέφη Scattered Clouds 11000ft
Πίεση
Αλλαγή -
Ανεπεξέργαστο KTPF 272335Z AUTO 22008KT 10SM SCT110 30/25 A3000 RMK AO2

VFR

30°C / 25°C

[Περισσότερο]
Άνεμος 210º 7kt
Ορατότητα >10km
Καιρός -
Νέφη Scattered Clouds 11000ft
Πίεση
Αλλαγή -
Ανεπεξέργαστο KTPF 272315Z AUTO 21007KT 10SM SCT110 30/25 A3000 RMK AO2

VFR

30°C / 25°C

[Περισσότερο]
Άνεμος 220º 4kt
Ορατότητα >10km
Καιρός -
Νέφη Clear
Πίεση
Αλλαγή -
Ανεπεξέργαστο KTPF 272255Z AUTO 22004KT 10SM CLR 30/25 A2999 RMK AO2

VFR

30°C / 25°C

[Περισσότερο]
Άνεμος 220º 5kt
Ορατότητα >10km
Καιρός -
Νέφη Scattered Clouds 11000ft
Πίεση
Αλλαγή -
Ανεπεξέργαστο KTPF 272235Z AUTO 22005KT 10SM SCT110 30/25 A2999 RMK AO2

VFR

30°C / 25°C

[Περισσότερο]
Άνεμος 220º 5kt
Ορατότητα >10km
Καιρός -
Νέφη Clear
Πίεση
Αλλαγή -
Ανεπεξέργαστο KTPF 272215Z AUTO 22005KT 10SM CLR 30/25 A2999 RMK AO2

VFR

30°C / 25°C

[Περισσότερο]
Άνεμος 210º 6kt
Ορατότητα >10km
Καιρός -
Νέφη Scattered Clouds 11000ft
Πίεση
Αλλαγή -
Ανεπεξέργαστο KTPF 272155Z AUTO 21006KT 10SM SCT110 30/25 A2999 RMK AO2

VFR

30°C / 25°C

[Περισσότερο]
Άνεμος 220º 5kt
Ορατότητα >10km
Καιρός -
Νέφη Clear
Πίεση
Αλλαγή -
Ανεπεξέργαστο KTPF 272135Z AUTO 22005KT 10SM CLR 30/25 A3000 RMK AO2

VFR

31°C / 24°C

[Περισσότερο]
Άνεμος 260º 3kt
Ορατότητα >10km
Καιρός -
Νέφη Scattered Clouds 8500ft
Πίεση
Αλλαγή -
Ανεπεξέργαστο KTPF 272115Z AUTO 26003KT 10SM SCT085 SCT120 31/24 A3000 RMK AO2

VFR

30°C / 25°C

[Περισσότερο]
Άνεμος 230º 4kt
Ορατότητα >10km
Καιρός -
Νέφη Scattered Clouds 9500ft
Πίεση
Αλλαγή -
Ανεπεξέργαστο KTPF 272055Z AUTO 23004KT 10SM SCT095 30/25 A3000 RMK AO2

VFR

30°C / 24°C

[Περισσότερο]
Άνεμος 220º 6kt
Ορατότητα >10km
Καιρός -
Νέφη Broken Clouds 9500ft
Πίεση
Αλλαγή -
Ανεπεξέργαστο KTPF 272035Z AUTO 22006KT 10SM BKN095 BKN120 30/24 A3001 RMK AO2

VFR

30°C / 25°C

[Περισσότερο]
Άνεμος variable 0kt
Ορατότητα >10km
Καιρός -
Νέφη Scattered Clouds 3400ft
Πίεση
Αλλαγή -
Ανεπεξέργαστο KTPF 272015Z AUTO 00000KT 10SM SCT034 SCT040 SCT055 30/25 A3001 RMK AO2

VFR

30°C / 24°C

[Περισσότερο]
Άνεμος variable 0kt
Ορατότητα >10km
Καιρός Light Rain 1.00mm precipitation
Νέφη Vertical Visibility of 0ft.
Πίεση
Αλλαγή -
Ανεπεξέργαστο KTPF 271955Z AUTO 00000KT 10SM -RA BKN035 OVC044 30/24 A3001 RMK AO2

VFR

29°C / 24°C

[Περισσότερο]
Άνεμος 270º 3kt
Ορατότητα >10km
Καιρός Light Rain 1.00mm precipitation
Νέφη Vertical Visibility of 0ft.
Πίεση
Αλλαγή -
Ανεπεξέργαστο KTPF 271935Z AUTO 27003KT 10SM -RA BKN039 OVC050 29/24 A3001 RMK AO2

VFR

28°C / 25°C

[Περισσότερο]
Άνεμος 260º 3kt
Ορατότητα >10km
Καιρός -
Νέφη Scattered Clouds 2200ft
Πίεση
Αλλαγή -
Ανεπεξέργαστο KTPF 271915Z AUTO 26003KT 10SM SCT022 BKN046 OVC080 28/25 A3001 RMK AO2

VFR

28°C / 24°C

[Περισσότερο]
Άνεμος 270º 5kt
Ορατότητα >10km
Καιρός Light Rain 1.00mm precipitation
Νέφη Vertical Visibility of 0ft.
Πίεση
Αλλαγή -
Ανεπεξέργαστο KTPF 271855Z AUTO 27005KT 10SM -RA SCT022 BKN037 OVC044 28/24 A3002 RMK AO2

VFR

31°C / 23°C

[Περισσότερο]
Άνεμος 340º 4kt
Ορατότητα >10km
Καιρός -
Νέφη Scattered Clouds 3700ft
Πίεση
Αλλαγή -
Ανεπεξέργαστο KTPF 271835Z AUTO 34004KT 10SM SCT037 BKN045 31/23 A3002 RMK AO2

VFR

32°C / 25°C

[Περισσότερο]
Άνεμος 220º 4kt
Ορατότητα >10km
Καιρός -
Νέφη Scattered Clouds 4700ft
Πίεση
Αλλαγή -
Ανεπεξέργαστο KTPF 271815Z AUTO 22004KT 10SM SCT047 SCT100 SCT120 32/25 A3002 RMK AO2

VFR

31°C / 25°C

[Περισσότερο]
Άνεμος 220º 3kt
Ορατότητα >10km
Καιρός -
Νέφη Scattered Clouds 9500ft
Πίεση
Αλλαγή -
Ανεπεξέργαστο KTPF 271755Z AUTO 22003KT 10SM SCT095 SCT120 31/25 A3002 RMK AO2

VFR

33°C / 25°C

[Περισσότερο]
Άνεμος 230º 6kt
Ορατότητα >10km
Καιρός -
Νέφη Scattered Clouds 9500ft
Πίεση
Αλλαγή -
Ανεπεξέργαστο KTPF 271735Z AUTO 23006KT 10SM SCT095 SCT110 33/25 A3002 RMK AO2

VFR

33°C / 24°C

[Περισσότερο]
Άνεμος 270º 3kt
Ορατότητα >10km
Καιρός -
Νέφη Scattered Clouds 7000ft
Πίεση
Αλλαγή -
Ανεπεξέργαστο KTPF 271655Z AUTO 27003KT 10SM SCT070 SCT095 SCT120 33/24 A3003 RMK AO2

VFR

32°C / 25°C

[Περισσότερο]
Άνεμος 270º 5kt
Ορατότητα >10km
Καιρός -
Νέφη Scattered Clouds 9500ft
Πίεση
Αλλαγή -
Ανεπεξέργαστο KTPF 271635Z AUTO 27005KT 10SM SCT095 SCT120 32/25 A3003 RMK AO2

rainNOW: Nowcast βροχής για Τάμπα και περιφέρεια (25km ακτίνα)

0.0 χιλιοστά
0.0 χιλιοστά
0.0 χιλιοστά
0.0 χιλιοστά
0.0 χιλιοστά
0.0 χιλιοστά
0.0 χιλιοστά
0.0 χιλιοστά
0.1 χιλιοστά
0.1 χιλιοστά
0.1 χιλιοστά
0.1 χιλιοστά

Τρέχουσες εικόνες δορυφόρου για Τάμπα, Ηνωμένες Πολιτείες της Αμερικής

Η ένδειξη τοποθεσίας τοποθετείται στο Τάμπα. [Περισσότερο]

Οι δορυφορικές εικόνες σε πραγματικό χρόνο συνδυάζουν ορατό φως κατά τη διάρκεια της ημέρας με υπέρυθρη ακτινοβολία κατά τη διάρκεια της νύχτας. Κατά τη διάρκεια της νύχτας, η εικόνα δεν είναι σκοτεινή μιας και η υπέρυθρη ακτινοβολία μπορεί να εντοπίσει τις διαφορές στη θερμοκρασία. Δυστυχώς, είναι δύσκολο να ξεχωρίσουν οι χαμηλές νεφώσεις και η ομίχλη από τις θερμοκρασίες εδάφους και έτσι μπορεί να είναι σχετικά αόρατα κατά τη διάρκεια της νύχτας. Οι εικόνες από τον δορυφόρο Meteosat για την Ευρώπη ενημερώνονται σε πραγματικό χρόνο κάθε 5 λεπτά. Οι εικόνες από τους δορυφόρους GOES-16/GOES-17 (Βόρεια & Λατινική Αμερική) και Himawari (Ασία) ενημερώνονται κάθε 10 λεπτά.

Ραντάρ και πρόγνωση υετού μικρής δειάρκειας για Τάμπα

Ψιλοβρέχει
Φως
Μέτρια
Βαριά
Πολύ βαρύ
Χαλάζι

Ο δείκτης θέσης τοποθετείται στο Τάμπα. Αυτή η κινούμενη εικόνα δείχνει την ραντάρ βροχόπτωσης για την τελευταία ώρα, καθώς και 1πρόγνωση h. Ψεκάδες (ψιλόβροχο) ή ελαφρά χιονόπτωση, μπορεί να είναι αόρατα στο ραντάρ. Η ένταση βροχόπτωσης κωδικοποιείται με χρώματα που κυμαίνονται από γαλάζιο έως σκούρο μοβ.